Time;durP1;ratioP1;P1;durP2;ratioP2;P2;SDS_P1;SDS_P2;PMS_P1;PMS_P2;Temp;Humidity;BMP_temperature;BMP_pressure;BME280_temperature;BME280_humidity;BME280_pressure;Samples;Min_cycle;Max_cycle;Signal;HPM_P1;HPM_P2
2022/08/17 00:01:42;;;;;;;12.37;9.48;;;;;;;22.28;93.12;99674.36;2700749;84;21017;-86
2022/08/17 00:05:51;;;;;;;12.35;10.98;;;;;;;22.34;92.76;99676.19;2747044;84;21025;-86
2022/08/17 00:09:52;;;;;;;14.65;9.80;;;;;;;22.40;91.88;99673.13;2746423;84;20999;-86
2022/08/17 00:14:01;;;;;;;13.05;10.50;;;;;;;22.39;91.70;99681.77;2723216;84;20998;-86
2022/08/17 00:18:03;;;;;;;12.47;9.38;;;;;;;22.38;91.70;99676.05;2723916;86;21018;-86
2022/08/17 00:22:06;;;;;;;14.87;9.58;;;;;;;22.39;91.41;99670.93;2746778;84;21121;-86
2022/08/17 00:26:08;;;;;;;10.13;9.03;;;;;;;22.39;91.52;99675.53;2729158;84;21025;-86
2022/08/17 00:30:13;;;;;;;10.35;9.33;;;;;;;22.39;91.42;99685.02;2747029;84;21022;-86
2022/08/17 00:34:14;;;;;;;12.35;9.28;;;;;;;22.40;91.22;99677.20;2746840;84;21474;-86
2022/08/17 00:38:16;;;;;;;12.28;9.83;;;;;;;22.43;91.08;99674.58;2747202;84;21091;-86
2022/08/17 00:42:18;;;;;;;15.53;9.05;;;;;;;22.46;90.74;99684.44;2746100;85;21005;-86
2022/08/17 00:46:25;;;;;;;10.40;8.38;;;;;;;22.47;90.34;99677.19;2747087;84;21030;-86
2022/08/17 00:50:26;;;;;;;9.73;8.70;;;;;;;22.47;89.96;99681.25;2741921;85;21030;-85
2022/08/17 00:54:36;;;;;;;18.32;10.98;;;;;;;22.47;89.66;99675.83;2810325;83;20972;-86
2022/08/17 00:58:38;;;;;;;11.55;9.15;;;;;;;22.43;89.18;99681.36;2808913;83;21629;-86
2022/08/17 01:02:43;;;;;;;13.00;10.45;;;;;;;22.40;89.31;99682.61;2810923;83;21019;-86
2022/08/17 01:06:48;;;;;;;15.18;10.72;;;;;;;22.36;89.03;99673.27;2746986;84;21035;-86
2022/08/17 01:10:52;;;;;;;10.70;8.73;;;;;;;22.32;88.90;99674.22;2728323;86;21076;-86
2022/08/17 01:14:53;;;;;;;;;;;;;;;22.31;88.94;99673.11;2712605;86;21056;-86
2022/08/17 01:18:59;;;;;;;12.07;9.20;;;;;;;22.27;88.89;99680.83;2705299;86;20132;-87
2022/08/17 01:23:01;;;;;;;10.23;8.83;;;;;;;22.24;88.75;99675.85;2764050;84;21029;-86
2022/08/17 01:27:03;;;;;;;12.15;9.03;;;;;;;22.23;88.24;99672.84;2759612;84;20990;-86
2022/08/17 01:31:07;;;;;;;10.78;9.13;;;;;;;22.19;87.68;99671.59;2744755;84;21014;-86
2022/08/17 01:35:10;;;;;;;20.92;9.88;;;;;;;22.10;87.35;99669.15;2740528;84;43424;-86
2022/08/17 01:39:29;;;;;;;9.58;8.68;;;;;;;22.01;87.34;99673.17;2759225;84;21041;-87
2022/08/17 01:43:35;;;;;;;9.90;8.88;;;;;;;21.91;87.46;99663.31;2758319;84;21585;-86
2022/08/17 01:47:37;;;;;;;9.15;8.08;;;;;;;21.81;87.82;99667.33;2758041;84;21029;-86
2022/08/17 01:51:39;;;;;;;10.00;8.78;;;;;;;21.76;87.98;99665.77;2718473;84;21145;-86
2022/08/17 01:55:46;;;;;;;12.50;10.68;;;;;;;21.71;88.35;99668.30;2733328;83;21011;-86
2022/08/17 01:59:47;;;;;;;10.23;9.13;;;;;;;21.64;88.32;99666.13;2706218;86;21040;-86
2022/08/17 02:03:49;;;;;;;10.20;7.72;;;;;;;21.54;88.79;99665.22;2707204;86;21084;-86
2022/08/17 02:07:51;;;;;;;10.68;8.90;;;;;;;21.47;89.31;99664.39;2762084;85;21669;-86
2022/08/17 02:11:54;;;;;;;22.73;9.20;;;;;;;21.42;89.54;99665.56;2754904;84;21050;-86
2022/08/17 02:15:57;;;;;;;11.65;8.28;;;;;;;21.43;89.28;99670.77;2752981;84;21035;-87
2022/08/17 02:19:58;;;;;;;10.10;9.05;;;;;;;21.39;89.33;99661.39;2753785;84;21015;-86
2022/08/17 02:23:59;;;;;;;13.53;10.53;;;;;;;21.36;90.93;99665.87;2753617;84;21037;-86
2022/08/17 02:28:02;;;;;;;28.47;19.98;;;;;;;21.33;91.17;99669.02;2733503;84;21058;-87
2022/08/17 02:32:04;;;;;;;35.63;25.20;;;;;;;21.32;91.58;99662.79;2753083;84;21043;-87
2022/08/17 02:36:10;;;;;;;39.03;27.15;;;;;;;21.27;91.19;99659.86;2712080;85;21037;-86
2022/08/17 02:40:11;;;;;;;18.05;12.95;;;;;;;21.18;92.09;99659.27;2753203;84;21005;-86
2022/08/17 02:44:13;;;;;;;18.10;13.43;;;;;;;21.18;92.11;99663.31;2749397;84;21030;-86
2022/08/17 02:48:14;;;;;;;46.58;30.30;;;;;;;21.26;92.14;99669.88;2753018;85;21041;-86
2022/08/17 02:52:16;;;;;;;33.48;24.52;;;;;;;21.20;91.72;99666.64;2751223;84;21006;-86
2022/08/17 02:56:17;;;;;;;27.75;17.37;;;;;;;21.22;92.05;99661.03;2746670;84;21026;-86
2022/08/17 03:00:27;;;;;;;18.57;13.93;;;;;;;21.28;91.44;99662.88;2707979;84;21667;-87
2022/08/17 03:04:30;;;;;;;15.55;11.12;;;;;;;21.24;91.06;99663.84;2740374;84;21087;-87
2022/08/17 03:08:31;;;;;;;9.95;8.80;;;;;;;21.24;90.87;99667.90;2742655;84;21052;-86
2022/08/17 03:12:36;;;;;;;40.00;28.57;;;;;;;21.28;90.76;99677.75;2784296;83;20999;-87
2022/08/17 03:16:37;;;;;;;21.87;15.28;;;;;;;21.10;90.99;99677.07;2779221;84;21031;-92
2022/08/17 03:20:40;;;;;;;13.08;11.15;;;;;;;21.09;91.78;99672.70;2736889;83;21015;-91
2022/08/17 03:24:41;;;;;;;10.85;9.55;;;;;;;21.16;91.59;99679.46;2787626;82;21534;-91
2022/08/17 03:28:43;;;;;;;17.02;10.78;;;;;;;21.17;90.62;99675.17;2829356;82;21008;-91
2022/08/17 03:32:48;;;;;;;15.50;9.05;;;;;;;21.10;89.71;99673.02;2815101;83;21011;-93
2022/08/17 03:36:49;;;;;;;8.88;8.05;;;;;;;20.88;89.89;99680.52;2832626;83;21054;-91
2022/08/17 03:40:52;;;;;;;12.55;8.90;;;;;;;20.72;89.95;99679.85;2832151;82;20964;-91
2022/08/17 03:44:57;;;;;;;20.90;9.15;;;;;;;20.66;90.20;99682.89;2808297;83;20980;-92
2022/08/17 03:57:38;;;;;;;11.25;8.80;;;;;;;20.65;91.79;99683.93;2798903;83;21024;-92
2022/08/17 04:01:40;;;;;;;14.58;10.30;;;;;;;20.57;92.93;99685.46;2799287;83;21019;-92
2022/08/17 04:05:42;;;;;;;15.03;10.38;;;;;;;20.41;92.99;99695.62;2739770;85;21057;-91
2022/08/17 04:09:43;;;;;;;11.53;9.90;;;;;;;20.32;94.91;99704.11;2743012;85;21038;-92
2022/08/17 04:13:45;;;;;;;12.82;10.00;;;;;;;20.47;95.78;99706.13;2692466;87;21071;-91
2022/08/17 04:17:46;;;;;;;10.03;8.85;;;;;;;20.93;95.45;99711.29;2742207;85;21045;-90
2022/08/17 04:21:48;;;;;;;13.00;9.90;;;;;;;21.50;95.83;99712.16;2686462;86;21016;-90
2022/08/17 04:25:50;;;;;;;24.87;11.97;;;;;;;22.14;96.47;99717.45;2693676;87;20969;-89
2022/08/17 04:29:51;;;;;;;20.23;10.95;;;;;;;22.64;94.39;99718.13;2743491;85;21061;-93
2022/08/17 04:33:54;;;;;;;13.35;10.35;;;;;;;22.97;89.60;99715.14;2745317;85;21019;-91
2022/08/17 04:37:55;;;;;;;17.92;11.90;;;;;;;23.50;91.23;99721.14;2782694;84;21054;-90
2022/08/17 04:42:05;;;;;;;24.23;11.57;;;;;;;24.25;88.95;99726.00;2781080;84;21071;-91
2022/08/17 04:46:11;;;;;;;14.10;9.65;;;;;;;24.92;86.06;99723.38;2782070;84;21041;-91
2022/08/17 04:50:13;;;;;;;21.93;10.53;;;;;;;25.44;80.15;99719.95;2781263;84;21615;-91
2022/08/17 04:54:20;;;;;;;10.25;9.05;;;;;;;25.94;79.17;99721.81;2779657;84;20979;-91
2022/08/17 04:58:22;;;;;;;9.70;8.60;;;;;;;26.25;75.45;99725.17;2757456;86;21032;-91
2022/08/17 05:02:23;;;;;;;12.37;9.13;;;;;;;26.56;74.40;99728.47;2783098;85;21539;-91
2022/08/17 05:06:26;;;;;;;9.80;8.90;;;;;;;26.91;71.61;99734.25;2742017;86;21021;-92
2022/08/17 05:10:32;;;;;;;9.55;8.48;;;;;;;27.17;70.74;99730.58;2741930;86;21108;-91
2022/08/17 05:14:33;;;;;;;;;;;;;;;27.24;69.82;99731.77;2738466;86;21040;-90
2022/08/17 05:18:36;;;;;;;14.73;8.93;;;;;;;27.11;70.23;99731.55;2721217;86;20098;-91
2022/08/17 05:22:53;;;;;;;10.45;9.03;;;;;;;27.22;69.29;99733.38;2758374;85;20993;-91
2022/08/17 05:26:55;;;;;;;10.10;9.00;;;;;;;27.58;68.71;99728.16;2729402;85;21065;-91
2022/08/17 05:31:00;;;;;;;10.03;7.65;;;;;;;27.73;68.57;99727.00;2759803;85;21057;-91
2022/08/17 05:35:01;;;;;;;;;;;;;;;27.93;67.20;99733.80;2789489;85;21005;-90
2022/08/17 05:39:03;;;;;;;9.30;8.20;;;;;;;28.05;66.93;99734.47;2705613;85;20428;-91
2022/08/17 05:43:17;;;;;;;10.58;7.60;;;;;;;28.18;66.65;99721.53;2695235;86;20976;-92
2022/08/17 05:47:20;;;;;;;9.70;8.00;;;;;;;28.38;66.65;99733.20;2746787;86;21016;-92
2022/08/17 05:51:45;;;;;;;9.10;7.42;;;;;;;28.48;65.79;99730.58;2745708;86;21081;-92
2022/08/17 05:56:10;;;;;;;10.18;8.43;;;;;;;28.53;65.85;99724.88;2720313;86;21064;-91
2022/08/17 06:00:29;;;;;;;9.83;8.63;;;;;;;28.64;66.10;99740.30;2743028;86;21052;-92
2022/08/17 06:05:02;;;;;;;9.95;8.95;;;;;;;28.81;66.45;99738.83;2739316;86;21415;-91
2022/08/17 06:09:38;;;;;;;8.53;7.72;;;;;;;28.88;65.27;99733.95;2722718;86;21012;-90
2022/08/17 06:13:54;;;;;;;7.72;6.87;;;;;;;28.42;64.94;99704.80;2794395;84;21039;-91
2022/08/17 06:18:00;;;;;;;14.85;7.75;;;;;;;28.47;63.71;99737.66;2765286;84;21015;-91
2022/08/17 06:22:05;;;;;;;6.90;5.70;;;;;;;28.39;65.10;99731.30;2794891;83;21011;-91
2022/08/17 06:26:12;;;;;;;;;;;;;;;28.11;62.55;99732.63;2797677;84;21015;-90
2022/08/17 06:30:19;;;;;;;9.50;7.20;;;;;;;28.16;63.43;99737.36;2782046;84;20075;-91
2022/08/17 06:34:20;;;;;;;12.65;8.18;;;;;;;27.96;64.00;99746.95;2782001;84;21817;-91
2022/08/17 06:38:36;;;;;;;7.03;6.10;;;;;;;27.99;63.80;99730.56;2716843;84;21034;-92
2022/08/17 06:42:46;;;;;;;7.78;6.97;;;;;;;27.97;61.92;99758.17;2771891;84;21011;-91
2022/08/17 06:46:56;;;;;;;13.65;7.85;;;;;;;27.73;63.67;99762.52;2795208;84;21007;-89
2022/08/17 06:51:22;;;;;;;10.25;7.40;;;;;;;27.56;62.53;99767.20;2785440;84;21075;-91
2022/08/17 06:55:28;;;;;;;11.75;7.92;;;;;;;27.75;64.20;99765.82;2760484;84;20996;-91
2022/08/17 06:59:52;;;;;;;10.60;6.53;;;;;;;28.01;63.12;99770.23;2810882;83;21051;-91
2022/08/17 07:04:15;;;;;;;7.55;6.75;;;;;;;28.21;63.80;99762.86;2704688;85;21028;-91
2022/08/17 07:08:43;;;;;;;9.05;7.08;;;;;;;28.21;62.91;99773.80;2746147;84;20975;-91
2022/08/17 07:12:46;;;;;;;9.98;6.60;;;;;;;27.92;63.87;99755.38;2752270;83;21531;-91
2022/08/17 07:16:55;;;;;;;16.90;7.17;;;;;;;27.92;63.87;99755.38;2715899;86;21029;-90
2022/08/17 07:21:01;;;;;;;7.05;6.33;;;;;;;28.12;64.26;99771.73;2699656;86;21028;-90
2022/08/17 07:25:08;;;;;;;8.80;7.45;;;;;;;27.99;62.34;99764.20;2757817;84;21023;-91
2022/08/17 07:29:14;;;;;;;12.13;7.12;;;;;;;28.20;63.95;99761.73;2719471;86;21062;-90
2022/08/17 07:33:23;;;;;;;11.08;6.83;;;;;;;28.68;66.68;99760.58;2746228;83;21493;-91
2022/08/17 07:37:25;;;;;;;8.70;7.85;;;;;;;28.75;65.64;99765.28;2700326;86;21055;-91
2022/08/17 07:41:32;;;;;;;9.40;7.62;;;;;;;28.75;65.64;99765.28;2700493;86;21051;-90
2022/08/17 07:49:57;;;;;;;9.03;7.92;;;;;;;28.99;63.41;99777.84;2703881;86;20980;-91
2022/08/17 07:54:22;;;;;;;9.45;7.70;;;;;;;29.32;63.32;99776.71;2759599;84;21048;-91
2022/08/17 07:58:25;;;;;;;17.55;7.75;;;;;;;29.66;62.46;99770.09;2757128;84;21045;-91
2022/08/17 08:02:39;;;;;;;12.30;8.33;;;;;;;30.00;61.53;99772.44;2762061;84;21074;-90
2022/08/17 08:06:53;;;;;;;7.33;6.60;;;;;;;30.24;60.18;99770.63;2762581;83;20993;-91
2022/08/17 08:11:04;;;;;;;8.43;7.42;;;;;;;30.62;58.64;99765.79;2762874;84;21517;-91
2022/08/17 08:15:25;;;;;;;9.00;7.92;;;;;;;30.99;56.19;99766.64;2699950;86;20978;-91
2022/08/17 08:19:29;;;;;;;8.55;7.35;;;;;;;31.30;55.84;99774.06;2742452;86;21037;-91
2022/08/17 08:23:47;;;;;;;9.00;8.07;;;;;;;31.48;55.57;99778.13;2732452;85;21063;-91
2022/08/17 08:28:08;;;;;;;8.65;7.25;;;;;;;31.62;55.72;99772.33;2768247;84;21009;-91
2022/08/17 08:32:38;;;;;;;8.63;7.53;;;;;;;31.77;55.02;99770.67;2655346;87;21635;-91
2022/08/17 08:36:51;;;;;;;7.53;6.80;;;;;;;31.85;54.92;99770.08;2704361;86;21031;-90
2022/08/17 08:41:18;;;;;;;6.92;6.15;;;;;;;31.95;53.16;99763.72;2710157;86;21028;-91
2022/08/17 08:45:31;;;;;;;10.25;6.90;;;;;;;32.07;53.17;99759.82;2706172;86;21055;-91
2022/08/17 08:49:56;;;;;;;10.25;7.35;;;;;;;32.38;52.89;99763.78;2709502;86;21122;-92
2022/08/17 08:54:17;;;;;;;;;;;;;;;32.48;53.14;99753.53;2708165;86;21103;-91
2022/08/17 08:58:58;;;;;;;11.55;7.28;;;;;;;32.69;52.35;99753.95;2706178;86;20151;-91
2022/08/17 09:03:17;;;;;;;9.88;6.10;;;;;;;32.81;53.00;99753.00;2651059;87;21068;-91
2022/08/17 09:07:34;;;;;;;7.97;5.83;;;;;;;32.87;52.75;99761.51;2711187;86;21024;-91
2022/08/17 09:11:44;;;;;;;5.80;4.90;;;;;;;32.97;51.43;99761.17;2790298;84;21048;-92
2022/08/17 09:15:50;;;;;;;5.33;4.35;;;;;;;33.04;50.84;99756.97;2792506;84;21452;-91
2022/08/17 09:20:00;;;;;;;6.65;6.05;;;;;;;33.08;48.22;99755.01;2751868;85;21010;-92
2022/08/17 09:24:19;;;;;;;5.67;4.83;;;;;;;33.19;48.97;99753.23;2767181;84;20985;-91
2022/08/17 09:28:29;;;;;;;5.30;4.72;;;;;;;33.24;47.41;99757.08;2788918;84;21017;-92
2022/08/17 09:32:44;;;;;;;6.45;5.37;;;;;;;32.96;47.41;99758.98;2766733;84;21090;-92
2022/08/17 09:37:15;;;;;;;5.65;4.65;;;;;;;32.81;48.54;99753.00;2796702;84;21037;-90
2022/08/17 09:41:43;;;;;;;9.03;5.05;;;;;;;32.92;49.96;99750.20;2794261;84;21106;-91
2022/08/17 09:45:53;;;;;;;8.35;5.62;;;;;;;32.86;48.29;99757.11;2800144;83;21500;-91
2022/08/17 09:50:12;;;;;;;4.37;3.00;;;;;;;32.99;49.36;99750.69;2799404;83;21057;-92
2022/08/17 09:54:35;;;;;;;4.75;3.72;;;;;;;32.96;43.35;99756.23;2775821;85;21067;-92
2022/08/17 09:58:51;;;;;;;4.30;3.90;;;;;;;33.12;45.74;99754.15;2707968;86;21036;-92
2022/08/17 10:03:15;;;;;;;6.45;4.08;;;;;;;33.25;45.19;99756.77;2754088;84;21025;-92
2022/08/17 10:07:24;;;;;;;8.25;4.80;;;;;;;33.44;45.96;99750.00;2708482;86;21043;-93
2022/08/17 10:16:50;;;;;;;4.00;3.58;;;;;;;33.86;44.81;99756.41;2816404;83;21028;-90
2022/08/17 10:26:11;;;;;;;5.58;3.92;;;;;;;34.07;44.76;99761.69;2715014;86;21068;-92
2022/08/17 10:30:00;;;;;;;6.37;4.97;;;;;;;34.13;44.24;99764.08;2682601;86;21072;-91
2022/08/17 10:34:29;;;;;;;6.22;5.40;;;;;;;34.16;44.96;99752.44;2691321;86;20991;-90
2022/08/17 10:38:49;;;;;;;5.33;3.75;;;;;;;34.15;45.90;99746.66;2706379;86;21008;-93
2022/08/17 10:43:20;;;;;;;5.35;4.83;;;;;;;34.21;43.95;99743.28;2733667;86;21584;-93
2022/08/17 10:47:25;;;;;;;4.60;4.20;;;;;;;34.20;44.91;99741.64;2708017;86;21558;-92
2022/08/17 10:51:39;;;;;;;5.67;4.35;;;;;;;34.29;43.33;99741.22;2739049;85;21083;-93
2022/08/17 10:55:46;;;;;;;4.65;4.25;;;;;;;34.26;43.64;99732.16;2788018;84;21452;-93
2022/08/17 10:59:51;;;;;;;5.92;4.20;;;;;;;34.26;44.42;99740.98;2771902;84;21136;-92
2022/08/17 11:03:56;;;;;;;6.87;4.78;;;;;;;34.35;44.00;99728.71;2781050;84;21041;-93
2022/08/17 11:08:18;;;;;;;4.83;4.42;;;;;;;34.46;43.83;99732.97;2767028;84;20984;-92
2022/08/17 11:12:59;;;;;;;5.05;4.33;;;;;;;34.40;43.73;99720.38;2697794;87;21127;-93
2022/08/17 11:17:40;;;;;;;6.25;4.72;;;;;;;34.50;44.53;99724.94;2729476;85;21030;-92
2022/08/17 11:22:35;;;;;;;3.85;3.55;;;;;;;34.52;43.70;99715.22;2700042;86;21006;-92
2022/08/17 11:26:40;;;;;;;;;;;;;;;34.54;45.09;99721.26;2705097;88;21051;-94
2022/08/17 11:30:46;;;;;;;7.53;5.28;;;;;;;34.45;41.22;99723.05;2703277;86;20108;-91
2022/08/17 11:34:48;;;;;;;4.90;4.08;;;;;;;34.37;42.47;99709.91;2703504;86;21037;-95
2022/08/17 11:38:58;;;;;;;4.05;3.50;;;;;;;34.39;42.33;99710.42;2703262;86;21106;-93
2022/08/17 11:43:14;;;;;;;4.50;4.10;;;;;;;34.39;41.43;99707.66;2702598;86;21038;-94
2022/08/17 11:52:14;;;;;;;4.33;3.98;;;;;;;34.43;44.37;99708.16;2683096;88;20992;-95
2022/08/17 11:56:47;;;;;;;7.22;5.72;;;;;;;34.33;46.32;99706.38;2745151;84;21033;-93
2022/08/17 12:00:56;;;;;;;5.20;4.70;;;;;;;34.47;44.38;99709.19;2771664;84;21047;-93
2022/08/17 12:05:24;;;;;;;5.03;4.53;;;;;;;34.35;45.21;99702.49;2767787;84;21497;-92
2022/08/17 12:09:29;;;;;;;5.03;4.45;;;;;;;34.52;44.09;99704.75;2767918;84;21018;-94
2022/08/17 12:13:36;;;;;;;10.68;5.70;;;;;;;34.69;44.63;99699.50;2776746;84;21033;-95
2022/08/17 12:17:38;;;;;;;5.20;4.62;;;;;;;34.69;44.68;99702.26;2766905;84;21038;-94
2022/08/17 12:22:05;;;;;;;4.30;3.90;;;;;;;34.87;44.03;99701.93;2783490;84;21648;-95
2022/08/17 12:26:12;;;;;;;4.67;4.15;;;;;;;35.11;44.26;99702.93;2768464;84;21021;-92
2022/08/17 12:30:18;;;;;;;9.03;4.70;;;;;;;35.08;44.42;99702.97;2776811;84;21042;-94
2022/08/17 12:34:25;;;;;;;5.72;4.12;;;;;;;35.12;44.84;99699.84;2762566;84;21029;-94
2022/08/17 12:38:28;;;;;;;4.95;4.55;;;;;;;35.17;43.40;99695.59;2779699;84;21023;-92
2022/08/17 12:42:38;;;;;;;12.75;7.00;;;;;;;35.08;41.98;99707.11;2760820;84;20981;-94
2022/08/17 12:46:53;;;;;;;5.53;4.97;;;;;;;34.96;42.55;99699.29;2763458;84;21389;-91
2022/08/17 12:51:01;;;;;;;4.62;3.87;;;;;;;35.00;43.37;99690.64;2763491;84;21018;-92
2022/08/17 12:55:21;;;;;;;6.42;4.17;;;;;;;34.98;43.05;99689.30;2725310;85;21051;-90
2022/08/17 12:59:22;;;;;;;10.93;4.67;;;;;;;35.05;44.16;99679.27;2764073;85;21556;-91
2022/08/17 13:03:30;;;;;;;4.65;4.15;;;;;;;34.94;43.21;99667.01;2784745;85;21511;-91
2022/08/17 13:07:34;;;;;;;5.22;4.72;;;;;;;34.89;44.83;99683.11;2682301;86;20995;-90
2022/08/17 13:11:39;;;;;;;10.50;4.33;;;;;;;34.97;42.59;99677.99;2755916;86;21058;-91
2022/08/17 13:15:45;;;;;;;6.75;4.03;;;;;;;34.93;42.49;99672.82;2804531;83;21047;-90
2022/08/17 13:19:49;;;;;;;7.20;4.45;;;;;;;34.79;43.06;99671.42;2757986;83;21043;-90
2022/08/17 13:24:02;;;;;;;4.60;4.10;;;;;;;34.88;42.32;99670.42;2805769;83;21061;-90
2022/08/17 13:28:04;;;;;;;4.03;3.20;;;;;;;34.82;42.89;99667.50;2805345;83;21021;-90
2022/08/17 13:32:11;;;;;;;5.65;3.62;;;;;;;35.00;44.21;99667.16;2787689;84;21033;-90
2022/08/17 13:36:12;;;;;;;3.70;3.40;;;;;;;35.08;44.29;99671.19;2785043;83;20973;-90
2022/08/17 13:40:22;;;;;;;6.40;4.33;;;;;;;35.15;44.45;99672.17;2748060;84;21038;-90
2022/08/17 13:44:35;;;;;;;50.58;11.57;;;;;;;35.27;43.81;99675.23;2747456;85;21060;-90
2022/08/17 13:48:37;;;;;;;4.47;3.58;;;;;;;35.33;45.10;99664.89;2768222;84;20998;-92
2022/08/17 13:52:42;;;;;;;4.37;3.77;;;;;;;35.47;42.75;99667.64;2736545;84;21021;-90
2022/08/17 13:56:58;;;;;;;7.83;4.03;;;;;;;35.56;41.65;99664.45;2739892;84;21060;-90
2022/08/17 14:01:37;;;;;;;7.72;3.90;;;;;;;35.53;42.51;99657.33;2766653;84;21040;-92
2022/08/17 14:05:38;;;;;;;7.78;4.70;;;;;;;35.55;42.13;99652.30;2798531;84;21016;-92
2022/08/17 14:09:53;;;;;;;6.75;4.15;;;;;;;35.39;41.66;99651.23;2779991;84;21072;-91
2022/08/17 14:13:54;;;;;;;6.15;3.92;;;;;;;35.22;42.51;99658.75;2699144;86;21032;-91
2022/08/17 14:17:56;;;;;;;5.45;3.67;;;;;;;35.22;41.06;99651.04;2713849;86;21034;-89
2022/08/17 14:21:58;;;;;;;3.62;3.33;;;;;;;35.16;42.34;99658.03;2691795;86;21025;-91
2022/08/17 14:26:00;;;;;;;5.62;3.92;;;;;;;34.95;39.81;99659.52;2777263;85;21020;-90
2022/08/17 14:30:06;;;;;;;7.95;5.03;;;;;;;35.01;39.61;99655.59;2720968;86;21001;-91
2022/08/17 14:34:09;;;;;;;6.00;4.00;;;;;;;35.19;39.86;99668.24;2755773;84;21023;-90
2022/08/17 14:38:10;;;;;;;5.12;3.70;;;;;;;35.02;41.51;99656.65;2771091;84;21456;-92
2022/08/17 14:42:13;;;;;;;6.65;4.83;;;;;;;34.85;40.32;99658.60;2734984;84;21027;-91
2022/08/17 14:46:15;;;;;;;3.60;3.30;;;;;;;34.79;41.22;99657.07;2783365;84;21512;-93
2022/08/17 14:50:18;;;;;;;5.00;3.83;;;;;;;34.86;40.66;99656.09;2757776;84;20999;-92
2022/08/17 14:54:19;;;;;;;4.33;3.10;;;;;;;35.02;41.97;99651.70;2781302;84;21615;-92
2022/08/17 14:58:22;;;;;;;3.72;3.42;;;;;;;35.21;39.47;99652.97;2702679;85;21931;-91
2022/08/17 15:02:28;;;;;;;7.10;3.67;;;;;;;35.33;39.25;99652.45;2708918;85;21043;-93
2022/08/17 15:06:29;;;;;;;7.00;4.05;;;;;;;35.37;39.40;99654.84;2681102;86;21077;-93
2022/08/17 15:10:31;;;;;;;3.47;3.17;;;;;;;35.34;40.38;99656.84;2656246;85;21063;-93
2022/08/17 15:14:34;;;;;;;4.42;3.75;;;;;;;35.10;43.26;99656.50;2694420;86;20991;-93
2022/08/17 15:18:36;;;;;;;7.85;4.45;;;;;;;34.97;43.02;99664.17;2699942;86;21082;-94
2022/08/17 15:22:40;;;;;;;6.03;4.35;;;;;;;34.87;41.72;99652.76;2691444;86;21078;-94
2022/08/17 15:26:42;;;;;;;5.85;5.08;;;;;;;34.75;43.62;99652.70;2692000;86;20979;-91
2022/08/17 15:30:44;;;;;;;6.40;4.55;;;;;;;34.69;42.46;99643.44;2638312;86;21000;-93
2022/08/17 15:34:45;;;;;;;4.83;4.33;;;;;;;34.49;41.29;99649.57;2649881;85;21001;-91
2022/08/17 15:38:46;;;;;;;6.17;4.75;;;;;;;34.51;42.23;99652.84;2689511;84;21533;-91
2022/08/17 15:42:47;;;;;;;6.15;4.70;;;;;;;34.35;41.95;99648.67;2718348;86;21023;-90
2022/08/17 15:46:49;;;;;;;5.12;4.67;;;;;;;34.31;42.11;99652.03;2718215;85;20996;-92
2022/08/17 15:50:50;;;;;;;4.80;3.70;;;;;;;34.37;42.38;99658.84;2728851;85;21052;-91
2022/08/17 15:54:59;;;;;;;4.42;4.03;;;;;;;34.51;44.68;99662.51;2723000;84;21134;-93
2022/08/17 15:59:00;;;;;;;6.47;4.40;;;;;;;34.44;45.47;99661.48;2733431;85;21511;-89
2022/08/17 16:03:01;;;;;;;7.70;4.45;;;;;;;34.29;44.06;99659.80;2725608;85;21067;-92
2022/08/17 16:07:03;;;;;;;5.72;3.85;;;;;;;33.99;44.25;99666.03;2757480;85;21039;-91
2022/08/17 16:11:04;;;;;;;6.12;3.95;;;;;;;33.88;46.67;99661.78;2789246;83;21029;-93
2022/08/17 16:15:07;;;;;;;5.33;4.20;;;;;;;33.76;45.85;99667.73;2748506;84;21017;-89
2022/08/17 16:19:08;;;;;;;7.83;5.17;;;;;;;33.61;47.95;99666.81;2718017;83;21001;-89
2022/08/17 16:23:12;;;;;;;55.98;12.82;;;;;;;33.58;48.92;99676.23;2768378;84;21048;-89
2022/08/17 16:27:13;;;;;;;22.40;9.10;;;;;;;33.52;49.39;99677.41;2708672;84;21027;-91
2022/08/17 16:31:15;;;;;;;9.95;5.78;;;;;;;33.44;49.80;99674.20;2763416;84;21025;-90
2022/08/17 16:35:19;;;;;;;9.60;4.60;;;;;;;33.39;49.77;99679.73;2765565;84;21009;-89
2022/08/17 16:39:20;;;;;;;13.32;6.90;;;;;;;33.27;50.68;99676.02;2739364;84;20993;-89
2022/08/17 16:43:21;;;;;;;8.73;4.92;;;;;;;33.13;50.85;99673.14;2767334;83;21053;-90
2022/08/17 16:47:23;;;;;;;7.10;4.67;;;;;;;32.99;51.02;99674.94;2743470;83;21015;-88
2022/08/17 16:51:25;;;;;;;5.97;5.33;;;;;;;32.88;49.50;99663.18;2763899;84;21104;-89
2022/08/17 16:55:26;;;;;;;7.35;4.92;;;;;;;32.75;50.26;99661.39;2741044;83;21016;-88
2022/08/17 16:59:27;;;;;;;5.17;4.67;;;;;;;32.72;49.18;99653.72;2762611;84;21031;-89
2022/08/17 17:03:30;;;;;;;8.60;4.22;;;;;;;32.59;49.24;99652.43;2750326;85;21029;-88
2022/08/17 17:07:49;;;;;;;14.40;4.67;;;;;;;32.41;51.84;99654.52;2733404;84;21010;-90
2022/08/17 17:11:56;;;;;;;7.05;5.65;;;;;;;32.23;51.01;99653.27;2707400;86;21028;-90
2022/08/17 17:16:05;;;;;;;16.55;8.13;;;;;;;32.10;50.43;99643.73;2685890;85;21019;-89
2022/08/17 17:20:23;;;;;;;8.65;5.67;;;;;;;32.02;50.67;99640.46;2765785;83;21480;-89
2022/08/17 17:24:35;;;;;;;6.80;5.12;;;;;;;31.99;50.51;99646.53;2721679;86;21040;-90
2022/08/17 17:28:48;;;;;;;9.98;6.60;;;;;;;31.90;50.84;99655.13;2727776;86;21064;-91
2022/08/17 17:32:55;;;;;;;12.50;6.55;;;;;;;31.84;51.49;99659.83;2742226;84;21060;-90
2022/08/17 17:37:05;;;;;;;10.65;5.85;;;;;;;31.72;52.05;99662.89;2754639;84;20997;-89
2022/08/17 17:41:21;;;;;;;8.93;7.08;;;;;;;31.61;52.07;99662.66;2752416;84;21021;-88
2022/08/17 17:45:34;;;;;;;19.65;8.83;;;;;;;31.51;52.76;99654.48;2757614;85;21050;-90
2022/08/17 17:49:45;;;;;;;11.70;8.48;;;;;;;31.36;52.78;99647.94;2762762;84;21045;-88
2022/08/17 17:54:05;;;;;;;15.68;8.83;;;;;;;31.20;53.00;99647.98;2760350;84;21010;-88
2022/08/17 17:58:36;;;;;;;12.68;6.45;;;;;;;31.00;53.78;99655.71;2676497;86;21087;-88
2022/08/17 18:02:49;;;;;;;11.20;7.80;;;;;;;30.76;54.93;99654.94;2709222;84;21050;-87
2022/08/17 18:07:17;;;;;;;17.35;9.75;;;;;;;30.52;55.89;99657.38;2704240;86;21011;-89
2022/08/17 18:11:35;;;;;;;8.80;5.58;;;;;;;30.26;56.64;99665.58;2700976;84;21079;-90
2022/08/17 18:15:53;;;;;;;11.38;6.30;;;;;;;30.06;57.39;99665.83;2785930;83;21006;-88
2022/08/17 18:19:55;;;;;;;12.75;5.60;;;;;;;29.87;58.58;99675.62;2707059;86;21043;-87
2022/08/17 18:24:04;;;;;;;18.35;7.78;;;;;;;29.67;60.06;99671.72;2768579;83;21024;-88
2022/08/17 18:28:08;;;;;;;14.33;9.88;;;;;;;29.45;60.25;99673.29;2769019;84;21071;-87
2022/08/17 18:32:32;;;;;;;21.80;12.93;;;;;;;29.15;62.71;99678.84;2779304;83;21035;-87
2022/08/17 18:36:35;;;;;;;16.55;7.45;;;;;;;28.86;62.38;99685.49;2782586;83;21011;-87
2022/08/17 18:40:37;;;;;;;28.07;16.27;;;;;;;28.75;61.93;99691.97;2754943;84;21059;-88
2022/08/17 18:44:42;;;;;;;22.15;16.00;;;;;;;28.62;63.63;99696.78;2724715;84;21008;-88
2022/08/17 18:48:55;;;;;;;17.42;14.15;;;;;;;28.49;63.50;99694.47;2692259;84;21055;-87
2022/08/17 18:53:02;;;;;;;17.45;15.35;;;;;;;28.36;63.53;99699.82;2709476;86;21041;-88
2022/08/17 18:57:06;;;;;;;22.40;14.58;;;;;;;28.21;64.01;99699.14;2702313;84;21094;-88
2022/08/17 19:01:13;;;;;;;16.30;14.58;;;;;;;28.09;64.24;99701.99;2755963;84;21006;-88
2022/08/17 19:05:38;;;;;;;44.85;21.35;;;;;;;27.98;64.48;99701.05;2761061;84;21030;-88
2022/08/17 19:09:45;;;;;;;46.73;20.32;;;;;;;27.84;65.02;99712.09;2756577;84;21066;-88
2022/08/17 19:14:05;;;;;;;62.35;31.65;;;;;;;27.73;65.94;99717.44;2768148;84;21015;-88
2022/08/17 19:18:30;;;;;;;80.17;34.20;;;;;;;27.65;65.36;99713.77;2761051;84;21069;-87
2022/08/17 19:22:40;;;;;;;87.35;40.10;;;;;;;27.43;67.20;99702.27;2749997;84;21133;-87
2022/08/17 19:26:45;;;;;;;91.80;38.10;;;;;;;27.36;67.15;99722.92;2760782;84;21037;-87
2022/08/17 19:30:47;;;;;;;80.53;31.55;;;;;;;27.28;66.94;99734.80;2736758;84;21019;-88
2022/08/17 19:34:48;;;;;;;64.15;29.80;;;;;;;27.20;67.08;99736.05;2761013;84;20974;-88
2022/08/17 19:38:55;;;;;;;34.60;15.32;;;;;;;27.09;67.31;99726.88;2764388;84;21044;-89
2022/08/17 19:43:08;;;;;;;17.85;8.80;;;;;;;26.93;69.95;99729.40;2713789;84;21021;-88
2022/08/17 19:47:31;;;;;;;10.85;7.58;;;;;;;26.77;69.43;99730.19;2767066;84;21008;-88
2022/08/17 19:51:44;;;;;;;10.88;8.58;;;;;;;26.64;69.25;99721.23;2730193;86;21034;-88